createdAt,value
2018-03-22T00:00:30.362Z,40.13
2018-03-22T00:03:00.014Z,44.30
2018-03-22T00:05:29.299Z,42.00
2018-03-22T00:07:58.568Z,32.77
2018-03-22T00:10:27.862Z,33.80
2018-03-22T00:12:57.167Z,41.23
2018-03-22T00:15:27.142Z,41.83
2018-03-22T00:17:56.390Z,28.77
2018-03-22T00:20:25.671Z,42.47
2018-03-22T00:22:54.944Z,39.13
2018-03-22T00:25:24.229Z,31.40
2018-03-22T00:27:53.663Z,34.30
2018-03-22T00:30:23.122Z,31.07
2018-03-22T00:32:52.384Z,36.20
2018-03-22T00:35:21.632Z,52.13
2018-03-22T00:37:50.907Z,40.43
2018-03-22T00:40:20.202Z,36.83
2018-03-22T00:42:50.242Z,43.70
2018-03-22T00:45:19.509Z,30.10
2018-03-22T00:47:48.905Z,37.80
2018-03-22T00:50:18.167Z,29.90
2018-03-22T00:52:47.467Z,35.23
2018-03-22T00:55:16.736Z,38.40
2018-03-22T00:57:46.019Z,39.67
2018-03-22T01:00:15.289Z,34.93
2018-03-22T01:02:46.831Z,32.30
2018-03-22T01:05:16.104Z,26.23
2018-03-22T01:07:45.410Z,29.93
2018-03-22T01:10:14.701Z,28.47
2018-03-22T01:12:43.999Z,36.83
2018-03-22T01:15:13.277Z,22.37
2018-03-22T01:17:43.310Z,25.50
2018-03-22T01:20:12.585Z,28.03
2018-03-22T01:22:42.115Z,30.13
2018-03-22T01:25:11.420Z,30.00
2018-03-22T01:27:40.671Z,24.67
2018-03-22T01:30:27.882Z,22.57
2018-03-22T01:32:57.292Z,21.80
2018-03-22T01:35:26.548Z,26.00
2018-03-22T01:37:55.839Z,29.37
2018-03-22T01:40:25.132Z,22.27
2018-03-22T01:42:55.258Z,21.73
2018-03-22T01:45:25.320Z,27.27
2018-03-22T01:47:54.676Z,31.20
2018-03-22T01:50:24.728Z,20.33
2018-03-22T01:53:11.814Z,16.27
2018-03-22T01:55:41.065Z,21.40
2018-03-22T01:58:10.367Z,27.87
2018-03-22T02:00:39.841Z,24.73
2018-03-22T02:03:09.117Z,18.63
2018-03-22T02:05:38.374Z,26.90
2018-03-22T02:08:07.715Z,18.60
2018-03-22T02:10:37.013Z,37.57
2018-03-22T02:13:06.838Z,18.90
2018-03-22T02:15:36.264Z,25.37
2018-03-22T02:18:05.840Z,23.63
2018-03-22T02:20:35.139Z,24.43
2018-03-22T02:23:04.425Z,20.00
2018-03-22T02:25:33.697Z,18.63
2018-03-22T02:28:03.064Z,24.27
2018-03-22T02:30:32.351Z,29.73
2018-03-22T02:33:01.627Z,21.37
2018-03-22T02:35:31.082Z,19.53
2018-03-22T02:38:00.377Z,30.50
2018-03-22T02:40:30.451Z,30.93
2018-03-22T02:42:59.898Z,29.83
2018-03-22T02:45:29.185Z,20.57
2018-03-22T02:47:58.451Z,21.43
2018-03-22T02:50:27.700Z,32.90
2018-03-22T02:52:57.735Z,21.63
2018-03-22T02:55:27.016Z,17.40
2018-03-22T02:57:56.293Z,27.33
2018-03-22T03:00:25.601Z,21.40
2018-03-22T03:02:54.835Z,21.10
2018-03-22T03:05:24.099Z,19.10
2018-03-22T03:07:53.376Z,30.30
2018-03-22T03:10:22.620Z,23.87
2018-03-22T03:12:51.885Z,19.43
2018-03-22T03:15:21.297Z,31.70
2018-03-22T03:17:50.774Z,29.17
2018-03-22T03:20:20.028Z,19.90
2018-03-22T03:22:49.367Z,25.00
2018-03-22T03:25:18.639Z,23.27
2018-03-22T03:27:47.904Z,38.33
2018-03-22T03:30:17.231Z,27.40
2018-03-22T03:32:46.466Z,35.10
2018-03-22T03:35:15.756Z,22.30
2018-03-22T03:37:45.015Z,27.43
2018-03-22T03:40:14.291Z,33.47
2018-03-22T03:42:43.535Z,29.67
2018-03-22T03:45:12.890Z,25.60
2018-03-22T03:47:42.198Z,35.37
2018-03-22T03:50:11.437Z,33.20
2018-03-22T03:52:40.716Z,30.63
2018-03-22T03:55:09.962Z,23.67
2018-03-22T03:57:39.213Z,39.63
2018-03-22T04:00:08.541Z,23.97
2018-03-22T04:02:39.276Z,36.03
2018-03-22T04:05:09.314Z,32.53
2018-03-22T04:07:38.566Z,31.37
2018-03-22T04:10:07.875Z,23.83
2018-03-22T04:12:37.140Z,24.53
2018-03-22T04:15:06.477Z,33.73
2018-03-22T04:17:35.726Z,25.80
2018-03-22T04:20:04.998Z,47.30
2018-03-22T04:22:34.363Z,28.80
2018-03-22T04:25:03.668Z,21.10
2018-03-22T04:27:32.951Z,30.77
2018-03-22T04:30:02.202Z,22.23
2018-03-22T04:32:31.497Z,27.23
2018-03-22T04:35:00.782Z,27.33
2018-03-22T04:37:30.021Z,36.57
2018-03-22T04:39:59.288Z,29.27
2018-03-22T04:42:28.527Z,31.00
2018-03-22T04:44:58.558Z,27.70
2018-03-22T04:47:27.817Z,29.43
2018-03-22T04:49:57.119Z,30.53
2018-03-22T04:52:26.402Z,24.20
2018-03-22T04:54:55.654Z,22.40
2018-03-22T04:57:24.953Z,27.20
2018-03-22T04:59:54.965Z,27.93
2018-03-22T05:02:24.247Z,29.30
2018-03-22T05:04:53.498Z,29.30
2018-03-22T05:07:22.764Z,28.73
2018-03-22T05:09:53.051Z,25.83
2018-03-22T05:12:22.318Z,24.33
2018-03-22T05:14:51.583Z,28.87
2018-03-22T05:17:20.973Z,21.17
2018-03-22T05:19:50.316Z,26.10
2018-03-22T05:22:19.549Z,32.90
2018-03-22T05:24:48.833Z,19.40
2018-03-22T05:27:18.370Z,50.90
2018-03-22T05:29:47.892Z,19.53
2018-03-22T05:32:17.122Z,24.23
2018-03-22T05:34:46.404Z,21.37
2018-03-22T05:37:16.160Z,27.10
2018-03-22T05:39:45.419Z,19.23
2018-03-22T05:42:14.711Z,27.87
2018-03-22T05:44:43.953Z,27.17
2018-03-22T05:47:13.298Z,24.13
2018-03-22T05:49:42.822Z,23.73
2018-03-22T05:52:12.097Z,27.50
2018-03-22T05:54:41.355Z,19.53
2018-03-22T05:57:10.660Z,24.90
2018-03-22T05:59:39.906Z,22.53
2018-03-22T06:02:09.257Z,26.83
2018-03-22T06:04:38.493Z,21.90
2018-03-22T06:07:07.760Z,20.40
2018-03-22T06:09:37.028Z,16.47
2018-03-22T06:12:06.284Z,28.70
2018-03-22T06:14:35.524Z,24.80
2018-03-22T06:17:04.806Z,17.67
2018-03-22T06:19:34.051Z,26.73
2018-03-22T06:22:03.342Z,20.67
2018-03-22T06:24:32.616Z,18.90
2018-03-22T06:27:03.451Z,18.63
2018-03-22T06:29:32.723Z,25.17
2018-03-22T06:32:01.963Z,16.50
2018-03-22T06:34:31.222Z,28.43
2018-03-22T06:37:00.522Z,23.07
2018-03-22T06:39:29.890Z,24.73
2018-03-22T06:41:59.110Z,19.47
2018-03-22T06:44:28.388Z,17.53
2018-03-22T06:46:58.460Z,19.30
2018-03-22T06:49:27.809Z,18.30
2018-03-22T06:51:57.021Z,20.30
2018-03-22T06:54:26.283Z,25.90
2018-03-22T06:56:56.305Z,23.03
2018-03-22T06:59:25.538Z,15.73
2018-03-22T07:01:54.797Z,28.37
2018-03-22T07:04:24.038Z,18.67
2018-03-22T07:06:53.341Z,17.70
2018-03-22T07:09:22.546Z,19.70
2018-03-22T07:11:51.819Z,16.70
2018-03-22T07:14:21.064Z,17.63
2018-03-22T07:16:50.331Z,25.30
2018-03-22T07:19:20.373Z,18.43
2018-03-22T07:21:49.652Z,33.80
2018-03-22T07:24:18.882Z,13.67
2018-03-22T07:26:48.142Z,17.03
2018-03-22T07:29:18.174Z,23.43
2018-03-22T07:31:47.429Z,24.90
2018-03-22T07:34:16.692Z,24.27
2018-03-22T07:36:46.008Z,21.33
2018-03-22T07:39:15.224Z,17.23
2018-03-22T07:41:44.464Z,22.70
2018-03-22T07:44:13.711Z,15.03
2018-03-22T07:46:42.966Z,18.20
2018-03-22T07:49:12.977Z,15.33
2018-03-22T07:51:42.243Z,16.73
2018-03-22T07:54:11.493Z,23.17
2018-03-22T07:56:41.533Z,20.03
2018-03-22T07:59:10.815Z,19.50
2018-03-22T08:01:40.073Z,22.57
2018-03-22T08:04:09.322Z,15.33
2018-03-22T08:06:38.594Z,24.77
2018-03-22T08:09:08.660Z,19.63
2018-03-22T08:11:37.915Z,21.90
2018-03-22T08:14:07.165Z,23.43
2018-03-22T08:16:36.430Z,16.97
2018-03-22T08:19:06.482Z,29.63
2018-03-22T08:21:35.727Z,35.63
2018-03-22T08:24:06.593Z,17.17
2018-03-22T08:26:35.838Z,24.37
2018-03-22T08:29:05.106Z,18.30
2018-03-22T08:31:34.532Z,24.77
2018-03-22T08:34:03.801Z,19.20
2018-03-22T08:36:33.821Z,27.00
2018-03-22T08:39:03.099Z,21.17
2018-03-22T08:41:32.369Z,30.53
2018-03-22T08:44:01.637Z,28.93
2018-03-22T08:46:30.895Z,28.43
2018-03-22T08:49:00.185Z,27.50
2018-03-22T08:51:29.458Z,29.40
2018-03-22T08:53:58.734Z,31.70
2018-03-22T08:56:27.986Z,34.47
2018-03-22T08:58:57.257Z,25.10
2018-03-22T09:01:27.106Z,22.20
2018-03-22T09:03:57.271Z,29.40
2018-03-22T09:06:26.892Z,29.60
2018-03-22T09:08:56.175Z,31.10
2018-03-22T09:11:25.419Z,28.30
2018-03-22T09:13:54.689Z,35.17
2018-03-22T09:16:23.951Z,28.03
2018-03-22T09:18:53.985Z,32.63
2018-03-22T09:21:23.236Z,21.77
2018-03-22T09:23:52.498Z,24.23
2018-03-22T09:26:21.786Z,29.70
2018-03-22T09:28:51.268Z,37.23
2018-03-22T09:31:20.677Z,27.30
2018-03-22T09:33:49.921Z,28.67
2018-03-22T09:36:19.982Z,31.93
2018-03-22T09:38:49.247Z,34.33
2018-03-22T09:41:18.539Z,24.20
2018-03-22T09:43:48.296Z,36.33
2018-03-22T09:46:17.535Z,26.77
2018-03-22T09:48:46.807Z,26.70
2018-03-22T09:51:16.056Z,24.37
2018-03-22T09:53:45.359Z,27.33
2018-03-22T09:56:15.452Z,28.60
2018-03-22T09:58:45.473Z,32.43
2018-03-22T10:01:14.905Z,30.40
2018-03-22T10:03:44.351Z,32.43
2018-03-22T10:06:13.624Z,24.30
2018-03-22T10:08:42.894Z,27.90
2018-03-22T10:11:12.150Z,24.00
2018-03-22T10:13:42.281Z,23.07
2018-03-22T10:16:11.518Z,27.87
2018-03-22T10:18:40.765Z,24.10
2018-03-22T10:21:10.046Z,30.33
2018-03-22T10:23:39.304Z,24.03
2018-03-22T10:26:08.585Z,24.67
2018-03-22T10:28:37.875Z,34.90
2018-03-22T10:31:07.270Z,27.13
2018-03-22T10:33:36.611Z,28.67
2018-03-22T10:36:06.659Z,24.53
2018-03-22T10:38:36.015Z,24.77
2018-03-22T10:41:05.310Z,23.17
2018-03-22T10:43:34.844Z,27.50
2018-03-22T10:46:04.934Z,31.83
2018-03-22T10:48:34.286Z,32.43
2018-03-22T10:51:03.568Z,32.20
2018-03-22T10:53:33.606Z,31.73
2018-03-22T10:56:03.094Z,29.37
2018-03-22T10:58:32.368Z,28.43
2018-03-22T11:01:07.207Z,31.13
2018-03-22T11:06:40.226Z,40.40
2018-03-22T11:09:09.653Z,28.87
2018-03-22T11:11:38.910Z,27.40
2018-03-22T11:14:08.257Z,30.37
2018-03-22T11:16:37.758Z,31.97
2018-03-22T11:19:07.782Z,39.83
2018-03-22T11:21:37.268Z,34.90
2018-03-22T11:24:06.676Z,30.20
2018-03-22T11:26:35.991Z,43.07
2018-03-22T11:29:05.217Z,30.13
2018-03-22T11:31:34.446Z,31.30
2018-03-22T11:34:03.735Z,33.57
2018-03-22T11:36:33.708Z,34.00
2018-03-22T11:39:03.011Z,34.63
2018-03-22T11:41:32.245Z,32.60
2018-03-22T11:44:01.531Z,29.17
2018-03-22T11:46:30.799Z,32.00
2018-03-22T11:49:00.845Z,27.60
2018-03-22T11:51:30.101Z,28.03
2018-03-22T11:53:59.341Z,31.73
2018-03-22T11:56:28.667Z,31.00
2018-03-22T11:58:58.680Z,27.83
2018-03-22T12:01:27.953Z,30.77
2018-03-22T12:03:57.210Z,30.70
2018-03-22T12:06:26.491Z,31.23
2018-03-22T12:08:55.849Z,32.07
2018-03-22T12:11:25.096Z,32.63
2018-03-22T12:13:54.366Z,31.37
2018-03-22T12:16:23.635Z,29.07
2018-03-22T12:18:52.963Z,27.53
2018-03-22T12:21:22.468Z,23.23
2018-03-22T12:23:52.608Z,27.30
2018-03-22T12:26:21.895Z,26.03
2018-03-22T12:28:51.184Z,28.10
2018-03-22T12:31:21.202Z,30.17
2018-03-22T12:33:50.496Z,29.83
2018-03-22T12:36:19.742Z,25.70
2018-03-22T12:38:49.221Z,23.53
2018-03-22T12:41:18.465Z,30.63
2018-03-22T12:43:47.739Z,29.93
2018-03-22T12:46:17.117Z,27.70
2018-03-22T12:48:47.138Z,25.20
2018-03-22T12:51:16.420Z,34.23
2018-03-22T12:53:45.662Z,27.13
2018-03-22T12:56:14.942Z,22.67
2018-03-22T12:58:44.977Z,32.77
2018-03-22T13:01:14.218Z,31.40
2018-03-22T13:03:43.476Z,24.43
2018-03-22T13:06:12.731Z,21.43
2018-03-22T13:08:42.020Z,28.10
2018-03-22T13:11:11.390Z,27.73
2018-03-22T13:13:40.802Z,23.37
2018-03-22T13:16:10.669Z,14.10
2018-03-22T13:18:39.979Z,15.10
2018-03-22T13:21:09.260Z,21.57
2018-03-22T13:23:38.504Z,18.53
2018-03-22T13:26:07.777Z,22.47
2018-03-22T13:28:37.801Z,17.30
2018-03-22T13:31:07.075Z,15.50
2018-03-22T13:33:36.318Z,18.43
2018-03-22T13:36:05.611Z,17.90
2018-03-22T13:38:35.825Z,15.00
2018-03-22T13:41:05.872Z,19.60
2018-03-22T13:43:35.334Z,21.10
2018-03-22T13:46:04.630Z,17.50
2018-03-22T13:48:34.663Z,18.80
2018-03-22T13:51:03.970Z,16.80
2018-03-22T13:53:33.228Z,20.20
2018-03-22T13:56:02.474Z,15.10
2018-03-22T13:58:32.610Z,18.57
2018-03-22T14:01:01.894Z,20.53
2018-03-22T14:03:31.910Z,16.23
2018-03-22T14:06:01.330Z,13.77
2018-03-22T14:08:30.550Z,12.77
2018-03-22T14:10:59.809Z,15.23
2018-03-22T14:13:29.073Z,15.33
2018-03-22T14:15:58.340Z,17.37
2018-03-22T14:18:27.585Z,9.77
2018-03-22T14:20:56.877Z,12.67
2018-03-22T14:23:26.273Z,18.97
2018-03-22T14:25:55.550Z,12.77
2018-03-22T14:28:24.798Z,7.20
2018-03-22T14:30:54.095Z,11.30
2018-03-22T14:33:23.519Z,8.47
2018-03-22T14:35:52.907Z,5.60
2018-03-22T14:38:22.444Z,6.23
2018-03-22T14:40:52.693Z,8.27
2018-03-22T14:43:21.957Z,7.90
2018-03-22T14:45:52.054Z,8.93
2018-03-22T14:48:21.415Z,5.30
2018-03-22T14:50:50.646Z,7.23
2018-03-22T14:53:19.865Z,6.87
2018-03-22T14:55:49.156Z,4.80
2018-03-22T14:58:18.418Z,5.77
2018-03-22T15:00:48.230Z,7.80
2018-03-22T15:03:17.517Z,11.57
2018-03-22T15:05:46.771Z,5.03
2018-03-22T15:08:16.029Z,4.40
2018-03-22T15:10:45.272Z,6.73
2018-03-22T15:13:14.486Z,5.43
2018-03-22T15:15:43.869Z,5.77
2018-03-22T15:18:14.700Z,5.60
2018-03-22T15:20:45.052Z,8.40
2018-03-22T15:23:14.317Z,8.03
2018-03-22T15:25:43.755Z,4.60
2018-03-22T15:28:13.021Z,6.57
2018-03-22T15:30:42.312Z,4.50
2018-03-22T15:33:11.675Z,5.03
2018-03-22T15:35:40.955Z,5.97
2018-03-22T15:38:10.203Z,6.30
2018-03-22T15:40:39.457Z,4.80
2018-03-22T15:43:08.727Z,7.50
2018-03-22T15:45:37.974Z,6.43
2018-03-22T15:48:07.277Z,5.00
2018-03-22T15:50:36.691Z,10.10
2018-03-22T15:53:06.041Z,7.13
2018-03-22T15:55:35.312Z,5.07
2018-03-22T15:58:04.598Z,4.07
2018-03-22T16:00:34.598Z,4.40
2018-03-22T16:03:04.726Z,4.00
2018-03-22T16:05:34.761Z,4.13
2018-03-22T16:08:04.062Z,3.80
2018-03-22T16:10:33.295Z,4.23
2018-03-22T16:13:02.566Z,5.77
2018-03-22T16:15:31.814Z,6.00
2018-03-22T16:18:01.061Z,3.43
2018-03-22T16:20:30.317Z,4.17
2018-03-22T16:22:59.543Z,3.70
2018-03-22T16:25:28.811Z,3.60
2018-03-22T16:27:58.046Z,4.60
2018-03-22T16:30:27.316Z,4.13
2018-03-22T16:32:56.587Z,6.67
2018-03-22T16:35:25.864Z,5.47
2018-03-22T16:37:55.915Z,4.30
2018-03-22T16:40:25.186Z,4.47
2018-03-22T16:42:54.512Z,3.73
2018-03-22T16:45:23.770Z,4.30
2018-03-22T16:47:53.014Z,3.20
2018-03-22T16:50:22.268Z,3.93
2018-03-22T16:52:51.530Z,3.43
2018-03-22T16:55:20.775Z,4.40
2018-03-22T16:57:50.809Z,3.40
2018-03-22T17:00:20.066Z,4.10
2018-03-22T17:02:49.364Z,7.47
2018-03-22T17:05:18.572Z,4.40
2018-03-22T17:07:48.404Z,4.43
2018-03-22T17:10:17.723Z,7.70
2018-03-22T17:12:47.732Z,4.93
2018-03-22T17:15:16.992Z,7.97
2018-03-22T17:17:46.244Z,3.60
2018-03-22T17:20:16.261Z,3.33
2018-03-22T17:22:45.654Z,4.77
2018-03-22T17:25:15.686Z,3.50
2018-03-22T17:27:44.942Z,3.50
2018-03-22T17:30:14.374Z,4.30
2018-03-22T17:32:48.082Z,3.70
2018-03-22T17:35:18.111Z,3.77
2018-03-22T17:37:47.375Z,4.90
2018-03-22T17:40:16.650Z,4.40
2018-03-22T17:42:45.930Z,4.90
2018-03-22T17:45:15.405Z,5.07
2018-03-22T17:47:45.714Z,5.60
2018-03-22T17:50:14.971Z,6.20
2018-03-22T17:52:44.224Z,5.17
2018-03-22T17:55:13.466Z,3.63
2018-03-22T17:57:42.835Z,5.30
2018-03-22T18:00:12.052Z,6.90
2018-03-22T18:02:43.062Z,6.47
2018-03-22T18:05:12.352Z,3.53
2018-03-22T18:07:41.601Z,6.33
2018-03-22T18:10:10.856Z,5.27
2018-03-22T18:12:40.102Z,5.43
2018-03-22T18:15:09.418Z,6.20
2018-03-22T18:17:38.921Z,6.20
2018-03-22T18:20:08.956Z,4.03
2018-03-22T18:22:39.004Z,10.17
2018-03-22T18:25:08.251Z,4.93
2018-03-22T18:27:37.487Z,4.73
2018-03-22T18:30:06.762Z,7.70
2018-03-22T18:32:36.225Z,6.80
2018-03-22T18:35:05.472Z,5.17
2018-03-22T18:37:35.060Z,6.87
2018-03-22T18:40:05.200Z,4.80
2018-03-22T18:42:34.604Z,4.00
2018-03-22T18:45:03.989Z,4.10
2018-03-22T18:47:34.173Z,5.40
2018-03-22T18:50:03.414Z,4.20
2018-03-22T18:52:32.687Z,4.97
2018-03-22T18:55:01.989Z,3.70
2018-03-22T18:57:31.239Z,4.07
2018-03-22T19:00:00.525Z,3.53
2018-03-22T19:02:29.994Z,6.03
2018-03-22T19:04:59.267Z,7.10
2018-03-22T19:07:28.746Z,5.33
2018-03-22T19:09:58.765Z,14.00
2018-03-22T19:12:28.030Z,8.00
2018-03-22T19:14:57.323Z,9.80
2018-03-22T19:17:26.567Z,15.00
2018-03-22T19:19:56.649Z,14.43
2018-03-22T19:22:26.683Z,10.27
2018-03-22T19:24:56.245Z,11.20
2018-03-22T19:27:25.606Z,11.10
2018-03-22T19:29:54.872Z,13.80
2018-03-22T19:32:24.168Z,11.90
2018-03-22T19:34:53.481Z,11.40
2018-03-22T19:37:22.762Z,12.90
2018-03-22T19:39:52.078Z,15.50
2018-03-22T19:42:21.318Z,7.20
2018-03-22T19:44:50.921Z,5.53
2018-03-22T19:47:20.526Z,11.40
2018-03-22T19:49:49.807Z,7.67
2018-03-22T19:52:19.826Z,9.67
2018-03-22T19:54:49.099Z,8.20
2018-03-22T19:57:18.499Z,6.00
2018-03-22T19:59:47.942Z,8.60
2018-03-22T20:02:17.438Z,5.07
2018-03-22T20:04:46.725Z,4.77
2018-03-22T20:07:16.389Z,7.20
2018-03-22T20:09:47.271Z,7.07
2018-03-22T20:12:16.764Z,5.20
2018-03-22T20:14:46.253Z,6.87
2018-03-22T20:17:15.511Z,8.67
2018-03-22T20:19:44.950Z,9.20
2018-03-22T20:22:14.213Z,8.90
2018-03-22T20:24:43.482Z,7.70
2018-03-22T20:27:12.772Z,9.10
2018-03-22T20:29:42.100Z,6.17
2018-03-22T20:32:11.331Z,6.70
2018-03-22T20:34:41.380Z,10.70
2018-03-22T20:37:10.659Z,11.23
2018-03-22T20:39:40.714Z,10.97
2018-03-22T20:42:09.986Z,6.87
2018-03-22T20:44:39.231Z,7.07
2018-03-22T20:47:08.492Z,6.53
2018-03-22T20:49:37.733Z,9.20
2018-03-22T20:52:06.989Z,8.97
2018-03-22T20:54:36.313Z,8.17
2018-03-22T20:57:06.241Z,23.53
2018-03-22T20:59:35.490Z,19.73
2018-03-22T21:02:04.773Z,8.10
2018-03-22T21:04:34.829Z,13.47
2018-03-22T21:07:04.268Z,13.20
2018-03-22T21:09:33.841Z,10.00
2018-03-22T21:12:03.090Z,7.67
2018-03-22T21:14:32.493Z,8.60
2018-03-22T21:17:01.774Z,11.93
2018-03-22T21:19:30.995Z,10.50
2018-03-22T21:22:00.267Z,15.40
2018-03-22T21:24:29.517Z,15.90
2018-03-22T21:26:58.848Z,12.80
2018-03-22T21:29:28.839Z,11.17
2018-03-22T21:31:58.114Z,9.37
2018-03-22T21:34:27.448Z,12.27
2018-03-22T21:36:56.702Z,12.33
2018-03-22T21:39:25.989Z,15.83
2018-03-22T21:42:07.129Z,15.00
2018-03-22T21:44:37.175Z,13.73
2018-03-22T21:47:24.350Z,10.83
2018-03-22T21:49:53.811Z,10.93
2018-03-22T21:52:41.514Z,11.03
2018-03-22T21:55:11.039Z,12.60
2018-03-22T21:57:40.277Z,14.20
2018-03-22T22:00:09.568Z,12.70
2018-03-22T22:02:38.801Z,15.60
2018-03-22T22:05:08.123Z,13.97
2018-03-22T22:07:38.145Z,11.77
2018-03-22T22:10:07.445Z,15.37
2018-03-22T22:12:36.794Z,17.90
2018-03-22T22:15:06.250Z,12.47
2018-03-22T22:17:35.677Z,16.90
2018-03-22T22:20:05.053Z,35.37
2018-03-22T22:22:34.343Z,17.63
2018-03-22T22:25:04.454Z,15.30
2018-03-22T22:27:35.229Z,22.10
2018-03-22T22:30:04.469Z,19.00
2018-03-22T22:32:33.901Z,15.73
2018-03-22T22:35:03.154Z,15.77
2018-03-22T22:37:32.426Z,15.20
2018-03-22T22:40:01.697Z,14.63
2018-03-22T22:42:32.523Z,16.03
2018-03-22T22:45:01.987Z,15.30
2018-03-22T22:47:31.469Z,18.07
2018-03-22T22:50:00.817Z,18.37
2018-03-22T22:52:30.115Z,19.93
2018-03-22T22:54:59.453Z,20.27
2018-03-22T22:57:28.702Z,16.90
2018-03-22T22:59:57.985Z,20.50
2018-03-22T23:02:27.345Z,20.73
2018-03-22T23:04:57.562Z,19.97
2018-03-22T23:07:26.829Z,19.50
2018-03-22T23:09:57.030Z,17.40
2018-03-22T23:12:26.335Z,17.77
2018-03-22T23:14:55.614Z,18.40
2018-03-22T23:17:24.883Z,18.70
2018-03-22T23:19:54.133Z,20.57
2018-03-22T23:22:24.254Z,21.40
2018-03-22T23:24:53.657Z,22.83
2018-03-22T23:27:22.925Z,15.47
2018-03-22T23:29:52.168Z,22.27
2018-03-22T23:32:22.198Z,17.40
2018-03-22T23:34:51.453Z,19.27
2018-03-22T23:37:20.731Z,18.80
2018-03-22T23:39:51.678Z,18.70
2018-03-22T23:42:20.911Z,25.43
2018-03-22T23:44:50.417Z,16.77
2018-03-22T23:47:19.799Z,16.93
2018-03-22T23:49:49.054Z,19.07
2018-03-22T23:52:18.318Z,19.97
2018-03-22T23:54:47.619Z,15.77
2018-03-22T23:57:17.049Z,19.40
2018-03-22T23:59:46.374Z,19.70
